Terminal Aerodrome Forecast
Issued by NWS Tuscon, AZ

Home | Current Version | Previous Version | Text Only | Print | Product List | Glossary On
Versions: 1 2 3 4 5 6 7 8 9 10 11 12 13
000
FTUS45 KTWC 022300
TAFDUG
TAF
KDUG 022330Z 0300/0324 19023G32KT P6SM SCT030 OVC060
      TEMPO 0301/0303 -SHRA
     FM030300 24015G28KT P6SM -SHRA SCT020 BKN030
      TEMPO 0303/0307 SHRA SCT015 BKN025
     FM030800 29012KT P6SM SCT030 BKN045 BKN100
     FM031300 22006KT P6SM SCT040 SCT080 BKN200
     FM031800 20015G24KT P6SM SCT050 SCT120=

USA.gov is the U.S. government's official web portal to all federal, state and local government web resources and services.